Dutton, Virginia
Current Conditions -  °F | °C
As of 12:55 PM on Friday 19 Dec 2014 (Local Time) from KW75 Reporting Station
Clear Clear  
Wind Chill: 36°   Ceiling: Unl
Heat Index: 41°   Visibility: 10mi
Dew Point: 26°   Wind: 7mph
Humidity: 55%   Direction: 320°NW
Pressure: 30.13"   Gusts: NA
Location:  37.5°N, 76.46°W
Report Text: KW75 191755Z AUTO 32006KT 10SM CLR 05/M03 A3013 RMK AO1 T00501035 10051 20007
Loading
Personal Weather Stations






























Interactive Weather Map New forecast layout! Learn more

10-Day Weather Forecast

Advertisements
Track Severe Weather on mobile